 DRI-NNSC Building Weather observations
Data are for 10 minute period ending at time listed.

 Day   Time   Solar   Ave.   Ave.  Ave.  Vector  Max.   Baro.   Total    
  of    of     Rad.   Air    Rel.  Wind   Wind   Wind  Press.  Precip.   
Year   Day            Temp.  Hum.  Speed  Dir.   Gust                    
2009   (PST)  Kw/m2    F      %     mph   deg.    mph    mb.     in.     
-------------------------------------------------------------------------
 112   16:50   0.33   72.3    13   10.5   252     22   847.7    0.00 
 112   17:00   0.30   71.8    13   13.4   264     27   847.7    0.00 
 112   17:10   0.27   71.0    14   14.0   270     24   847.7    0.00 
 112   17:20   0.24   71.1    13   14.0   268     26   847.7    0.00 
 112   17:30   0.21   71.0    13   10.1   260     20   847.7    0.00 
 112   17:40   0.17   70.4    14   11.9   267     22   847.6    0.00 
 112   17:50   0.14   70.1    14    9.7   265     19   847.6    0.00 
 112   18:00   0.10   69.7    15   10.9   237     29   847.4    0.00 
 112   18:10   0.08   69.1    16   10.1   247     25   847.5    0.00 
 112   18:20   0.03   68.3    17   10.1   249     21   847.4    0.00 
 112   18:30   0.01   67.8    17    8.9   262     16   847.4    0.00 
 112   18:40   0.01   67.3    18    7.6   263     17   847.5    0.00 
 112   18:50   0.00   66.8    19    7.2   259     16   847.5    0.00 
 112   19:00   0.00   66.6    20    6.6   272     14   847.5    0.00 
 112   19:10   0.00   66.3    20    6.9   274     14   847.6    0.00 
 112   19:20   0.00   66.0    21    7.3   269     14   847.5    0.00 
 112   19:30   0.00   65.7    22    6.4   274     13   847.5    0.00 
 112   19:40   0.00   65.2    23    5.0   286     11   847.6    0.00 
 112   19:50   0.00   64.8    23    6.4   304     15   847.6    0.00 
 112   20:00   0.00   64.4    24    5.2   309     14   847.7    0.00 
 112   20:10   0.00   63.9    25    5.4   318      9   847.7    0.00 
 112   20:20   0.00   63.9    25    6.5   312     12   847.7    0.00 
 112   20:30   0.00   64.1    25    6.4   285     13   847.7    0.00 
 112   20:40   0.00   63.9    25    6.8   285     13   847.7    0.00 
 112   20:50   0.00   63.7    25    8.3   283     14   847.6    0.00 
 112   21:00   0.00   63.1    26    6.8   279     13   847.6    0.00 
 112   21:10   0.00   62.9    27    7.1   285     12   847.5    0.00 
 112   21:20   0.00   62.8    28    6.0   277     12   847.5    0.00 
 112   21:30   0.00   62.6    28    5.8   292     14   847.4    0.00 
 112   21:40   0.00   62.3    29    6.2   285     13   847.3    0.00 
 112   21:50   0.00   62.0    30    6.2   299     12   847.3    0.00 
 112   22:00   0.00   61.6    31    5.7   299     11   847.2    0.00 
 112   22:10   0.00   61.4    31    4.3   302      9   847.0    0.00 
 112   22:20   0.00   61.2    32    4.4   279     10   847.0    0.00 
 112   22:30   0.00   61.1    31    3.3   282      6   846.9    0.00 
 112   22:40   0.00   60.4    32    2.5   333      4   846.9    0.00 
 112   22:50   0.00   59.9    32    3.9   282      8   846.8    0.00 
 112   23:00   0.00   61.0    27    6.7   265     15   846.7    0.00 
 112   23:10   0.00   61.2    27    5.2   254      9   846.7    0.00 
 112   23:20   0.00   61.0    28    6.1   246     13   846.7    0.00 
 112   23:30   0.00   60.8    28    5.8   252     11   846.7    0.00 
 112   23:40   0.00   60.4    29    6.4   256     12   846.7    0.00 
 112   23:50   0.00   60.2    28    7.7   252     14   846.6    0.00 
 113    0:00   0.00   60.2    26    7.1   246     16   846.6    0.00 
 113    0:10   0.00   60.1    26    5.6   237     16   846.7    0.00 
 113    0:20   0.00   60.0    25    5.4   235     12   846.8    0.00 
 113    0:30   0.00   59.9    24    5.3   242     11   846.7    0.00 
 113    0:40   0.00   59.8    23    7.0   244     15   846.5    0.00 
 113    0:50   0.00   59.8    23    8.4   237     20   846.3    0.00 
 113    1:00   0.00   59.5    23    6.9   236     17   846.2    0.00 
 113    1:10   0.00   59.4    23    8.5   227     16   846.2    0.00 
 113    1:20   0.00   59.2    23    7.2   214     14   846.2    0.00 
 113    1:30   0.00   59.1    23    8.1   190     16   846.0    0.00 
 113    1:40   0.00   59.1    22    9.2   194     20   846.0    0.00 
 113    1:50   0.00   59.1    22    9.8   199     18   845.9    0.00 
 113    2:00   0.00   58.9    22    9.8   208     15   845.8    0.00 
 113    2:10   0.00   58.6    22   12.1   207     21   845.6    0.00 
 113    2:20   0.00   58.5    22   12.8   212     23   845.5    0.00 
 113    2:30   0.00   58.7    22   11.0   227     22   845.4    0.00 
 113    2:40   0.00   59.3    20    9.7   232     22   845.3    0.00 
 113    2:50   0.00   59.1    21   10.5   235     19   845.4    0.00 
 113    3:00   0.00   59.0    21    9.8   229     22   845.5    0.00 
 113    3:10   0.00   59.7    20   10.8   227     20   845.5    0.00 
 113    3:20   0.00   59.5    20    9.2   228     22   845.5    0.00 
 113    3:30   0.00   58.1    22    5.0   243     11   845.5    0.00 
 113    3:40   0.00   57.0    23    3.1   246      6   845.6    0.00 
 113    3:50   0.00   56.6    23    3.8   252      7   845.5    0.00 
 113    4:00   0.00   56.3    23    4.7   248      8   845.5    0.00 
 113    4:10   0.00   56.2    23    6.0   247     11   845.5    0.00 
 113    4:20   0.00   56.0    24    5.3   255     10   845.6    0.00 
 113    4:30   0.00   55.7    24    4.8   246     11   845.6    0.00 
 113    4:40   0.00   55.7    24    6.6   238     14   845.5    0.00 
 113    4:50   0.00   55.4    24    6.9   251     15   845.5    0.00 
 113    5:00   0.00   54.9    24    5.4   248     11   845.4    0.00 
 113    5:10   0.00   54.8    24    5.5   235     14   845.5    0.00 
 113    5:20   0.01   54.8    23    7.3   224     14   845.4    0.00 
 113    5:30   0.01   54.7    23    7.3   227     16   845.5    0.00 
 113    5:40   0.01   54.2    24    6.4   229     12   845.6    0.00 
 113    5:50   0.01   54.3    23    7.3   229     15   845.6    0.00 
 113    6:00   0.01   54.4    23    6.8   261     17   845.7    0.00 
 113    6:10   0.03   54.6    23    5.1   246     14   845.8    0.00 
 113    6:20   0.07   54.7    21    6.7   250     11   845.9    0.00 
 113    6:30   0.19   55.9    18    4.8   236     11   846.0    0.00 
 113    6:40   0.23   56.8    16    6.8   232     13   846.1    0.00 
 113    6:50   0.25   56.9    15    7.5   229     14   845.9    0.00 
 113    7:00   0.28   57.4    15    5.9   242     13   845.9    0.00 
 113    7:10   0.31   57.5    14    9.1   258     18   846.0    0.00 
 113    7:20   0.34   58.0    13    7.6   256     16   846.1    0.00 
 113    7:30   0.36   58.6    12    8.2   257     17   846.0    0.00 
 113    7:40   0.40   58.9    13    7.3   251     16   846.0    0.00 
 113    7:50   0.43   59.4    12    8.0   248     17   846.0    0.00 
 113    8:00   0.47   59.5    12    8.9   244     16   845.9    0.00 
 113    8:10   0.49   60.0    12   10.5   254     22   845.8    0.00 
 113    8:20   0.52   60.6    12   10.0   240     26   845.8    0.00 
 113    8:30   0.55   60.6    12   11.5   244     24   845.8    0.00 
 113    8:40   0.57   60.9    12   11.4   235     26   845.8    0.00 
 113    8:50   0.60   60.7    12   14.4   235     28   845.8    0.00 
 113    9:00   0.63   61.5    12   12.0   239     24   845.8    0.00 
 113    9:10   0.65   61.4    12   12.7   226     25   845.7    0.00 
 113    9:20   0.68   61.2    12   14.1   217     22   845.7    0.00 
 113    9:30   0.70   61.6    13   13.9   215     25   845.7    0.00 
 113    9:40   0.72   61.4    13   17.4   215     28   845.6    0.00 
 113    9:50   0.74   61.7    13   16.2   218     25   845.6    0.00 
 113   10:00   0.76   62.4    13   15.5   222     28   845.5    0.00 
 113   10:10   0.78   62.6    13   13.8   219     26   845.6    0.00 
 113   10:20   0.79   62.8    13   15.5   217     27   845.5    0.00 
 113   10:30   0.81   62.9    13   11.6   224     23   845.7    0.00 
 113   10:40   0.84   64.2    13   10.8   234     22   845.7    0.00 
 113   10:50   0.54   63.0    13   16.3   217     32   845.5    0.00 
 113   11:00   0.89   64.3    13   12.7   235     26   845.5    0.00 
 113   11:10   0.90   64.5    13   11.7   230     24   845.4    0.00 
 113   11:20   0.91   64.5    12   12.5   233     27   845.3    0.00 
 113   11:30   0.89   64.3    12   13.4   234     31   845.2    0.00 
 113   11:40   0.94   65.4    12   11.0   240     24   845.2    0.00 
 113   11:50   0.94   65.0    12   12.0   234     25   845.1    0.00 
 113   12:00   0.95   65.4    12   10.5   250     23   845.0    0.00 
 113   12:10   0.96   65.3    12   13.4   231     30   845.0    0.00 
 113   12:20   0.97   64.8    12   15.9   227     29   844.8    0.00 
 113   12:30   0.96   65.6    12   14.4   252     36   845.0    0.00 
 113   12:40   0.88   65.6    12   16.0   256     32   845.0    0.00 
 113   12:50   0.87   65.5    12   15.4   258     29   844.9    0.00 
 113   13:00   0.90   65.9    13   14.3   254     30   844.9    0.00 
 113   13:10   0.89   65.2    13   16.1   252     32   845.0    0.00 
 113   13:20   0.90   65.2    13   14.2   252     33   845.0    0.00 
 113   13:30   0.92   65.6    13   13.7   254     30   845.0    0.00 
 113   13:40   0.92   64.9    14   14.2   249     28   845.0    0.00 
 113   13:50   0.88   64.9    14   12.8   244     31   845.0    0.00 
 113   14:00   0.85   63.8    16   14.1   238     28   845.0    0.00 
 113   14:10   0.85   64.1    16   12.1   242     23   845.0    0.00 
 113   14:20   0.83   64.9    16   11.4   262     24   845.0    0.00 
 113   14:30   0.79   64.0    17   13.5   261     29   845.0    0.00 
 113   14:40   0.75   63.1    18   12.9   257     26   845.0    0.00 
 113   14:50   0.74   63.1    18   11.3   263     23   844.9    0.00 
 113   15:00   0.70   63.4    18   11.0   241     29   844.9    0.00 
 113   15:10   0.67   62.7    19   10.9   250     21   844.9    0.00 
 113   15:20   0.64   62.5    19   12.3   258     28   845.0    0.00 
 113   15:30   0.61   62.4    19   10.6   256     26   845.0    0.00 
 113   15:40   0.58   62.0    20   10.3   269     23   844.9    0.00 
 113   15:50   0.56   60.8    22   12.3   264     23   844.8    0.00 
 113   16:00   0.52   60.2    23   13.5   253     27   844.8    0.00 
 113   16:10   0.49   60.4    24   10.9   252     23   844.9    0.00 
 113   16:20   0.47   59.2    25   14.3   238     28   845.0    0.00 
 113   16:30   0.46   58.4    27   13.9   236     27   845.1    0.00 
 113   16:40   0.43   58.6    26   13.1   235     29   845.1    0.00 